Imogene, IA

12:12 PM CST on February 01, 2015 (GMT -0600)
Plattsmouth Municipal | Change Station
CLOSE
Current Station
Airport
Location: Plattsmouth,
Elevation: 1201 ft
Nearby Weather Stations
Active Advisory: Winter Storm Warning Active Notice: Record Report

Elev 1201 ft 40.95 °N, 95.92 °W | Updated 17 minutes ago

Snow
Snow
19 °F
Feels Like 2 °F
N
23
Wind Variable Wind from NNW
Gusts 28 mph

Today
High -- | Low -- °F
--% Chance of Precip.
Yesterday
High -- | Low -- °F
Precip. -- in
7:32 AM 5:38 PM
Waxing Gibbous, 95% visible
Pressure 30.00 in
Visibility 1.2 miles
Clouds Mostly Cloudy 1100 ft
Overcast 1500 ft
Windchill 2 °F
Dew Point 15 °F
Humidity 83%
Rainfall 0.21 in
Snow Depth Not available.
UV 1 out of 12
Pollen .10 out of 12
Air Quality Not available.
Flu Activity Not available.
METAR KPMV 011755Z AUTO 34020G24KT 1 1/4SM -SN BKN011 OVC015 M07/M10 A3000 RMK AO2 T10711096 10000 21071

More Conditions Fewer Conditions

Pressure 30.00 in
Visibility 1.2 miles
Clouds Mostly Cloudy 1100 ft
Overcast 1500 ft
Windchill 2 °F
Dew Point 15 °F
Humidity 83%
Rainfall 0.21 in
Snow Depth Not available.
UV 1 out of 12
Pollen .10 out of 12
Air Quality Not available.
Flu Activity Not available.
METAR KPMV 011755Z AUTO 34020G24KT 1 1/4SM -SN BKN011 OVC015 M07/M10 A3000 RMK AO2 T10711096 10000 21071

More Conditions Fewer Conditions

10-Day Weather Forecast

Almanac

Astronomy

Feb. 01, 2015 Rise Set
Actual Time
Civil Twilight
Nautical Twilight
Astronomical Twilight
Moon
Length of Visible Light
Length of Day
Tomorrow will be .
, % of the Moon is Illuminated

Today's Extremes

State Highs State Lows

Community

WunderPhotos

Upload Photos

1,792,420 photos uploaded!

WunderBlogs® & News

Nearby

Air Quality

  Air Quality AQ Index Pollutant
Not available.

Snow Depth

Station Depth Elevation

Earthquake Activity

City Distance Mag. Time & Date
Minimum magnitude displayed is 2.5.

Coastal Water Temperatures

Place Temperature

Nearby Weather Stations